Mercer, Missouri
Current Conditions -  °F | °C
As of 9:53 PM on Thursday 27 Nov 2014 (Local Time) from KLWD Reporting Station
Clear Clear  
Wind Chill: 11°   Ceiling: Unl
Heat Index: 21°   Visibility: 10mi
Dew Point: 14°   Wind: 8mph
Humidity: 74%   Direction: 140°SE
Pressure: 30.28"   Gusts: NA
Location:  40.51°N, 93.53°W
Report Text: KLWD 280353Z AUTO 14007KT 10SM CLR M06/M10 A3028 RMK AO2 SLP274 T10611100
Loading
Personal Weather Stations






























Interactive Weather Map New forecast layout! Learn more

10-Day Weather Forecast

Advertisements
Track Severe Weather on mobile